Time;durP1;ratioP1;P1;durP2;ratioP2;P2;SDS_P1;SDS_P2;PMS_P1;PMS_P2;Temp;Humidity;BMP_temperature;BMP_pressure;BME280_temperature;BME280_humidity;BME280_pressure;Samples;Min_cycle;Max_cycle;Signal;HPM_P1;HPM_P2
2022/12/04 00:03:24;;;;;;;36.57;22.57;;;1.40;99.90;;;;;;2619217;54;20150;-83
2022/12/04 00:09:11;;;;;;;47.80;25.10;;;1.40;99.90;;;;;;2619287;54;20442;-87
2022/12/04 00:14:59;;;;;;;35.60;22.40;;;1.40;99.90;;;;;;2619169;54;20229;-85
2022/12/04 00:20:48;;;;;;;41.17;23.27;;;1.50;99.90;;;;;;2619139;54;20166;-85
2022/12/04 00:26:35;;;;;;;40.80;26.07;;;1.40;99.90;;;;;;2619171;54;20516;-85
2022/12/04 00:32:23;;;;;;;39.70;24.13;;;1.40;99.90;;;;;;2617281;54;20210;-86
2022/12/04 00:38:10;;;;;;;46.53;25.17;;;1.40;99.90;;;;;;2617575;47;20614;-85
2022/12/04 00:47:19;;;;;;;39.70;23.67;;;1.40;99.90;;;;;;2617745;54;20350;-85
2022/12/04 00:53:07;;;;;;;41.40;24.17;;;1.40;99.90;;;;;;2617944;54;20139;-85
2022/12/04 00:58:56;;;;;;;38.57;22.07;;;1.40;99.90;;;;;;2617391;54;20427;-85
2022/12/04 01:04:44;;;;;;;41.90;22.67;;;1.40;99.90;;;;;;2619633;39;20758;-85
2022/12/04 01:13:56;;;;;;;36.03;23.73;;;1.40;99.90;;;;;;2618803;54;20411;-85
2022/12/04 01:19:44;;;;;;;36.60;22.90;;;1.40;99.90;;;;;;2618903;54;20423;-83
2022/12/04 01:25:32;;;;;;;38.13;23.97;;;1.40;99.90;;;;;;2619239;54;20478;-83
2022/12/04 01:31:21;;;;;;;39.20;23.00;;;1.40;99.90;;;;;;2618965;54;20126;-83
2022/12/04 01:37:09;;;;;;;35.17;21.77;;;1.40;99.90;;;;;;2619088;54;20971;-84
2022/12/04 01:42:58;;;;;;;39.63;23.50;;;1.40;99.90;;;;;;2619415;54;20134;-85
2022/12/04 01:48:52;;;;;;;42.53;22.17;;;1.40;99.90;;;;;;2619730;54;20367;-84
2022/12/04 01:54:43;;;;;;;41.17;23.37;;;1.40;99.90;;;;;;2619604;54;20402;-83
2022/12/04 02:00:31;;;;;;;42.07;24.10;;;1.40;99.90;;;;;;2620327;54;20362;-85
2022/12/04 02:06:19;;;;;;;40.50;23.43;;;1.40;99.90;;;;;;2618981;54;20656;-80
2022/12/04 02:09:22;;;;;;;36.90;24.40;;;1.40;99.90;;;;;;2618370;46;20485;-81
2022/12/04 02:12:09;;;;;;;37.50;22.07;;;1.40;99.90;;;;;;2618768;54;20386;-81
2022/12/04 02:31:03;;;;;;;46.07;25.07;;;1.30;99.90;;;;;;2618717;54;20481;-79
2022/12/04 02:43:16;;;;;;;40.47;23.50;;;1.30;99.90;;;;;;2618604;54;20378;-80
2022/12/04 02:49:10;;;;;;;48.30;24.30;;;1.30;99.90;;;;;;2618583;54;20383;-80
2022/12/04 02:55:04;;;;;;;37.40;22.27;;;1.20;99.90;;;;;;2618656;54;20388;-81
2022/12/04 03:00:55;;;;;;;37.30;22.17;;;1.20;99.90;;;;;;2619128;39;20785;-79
2022/12/04 03:06:47;;;;;;;34.87;21.83;;;1.20;99.90;;;;;;2618872;54;20408;-80
2022/12/04 03:19:00;;;;;;;36.10;21.40;;;1.30;99.90;;;;;;2617826;54;20429;-87
2022/12/04 03:24:51;;;;;;;32.60;19.40;;;1.30;99.90;;;;;;2618522;54;20523;-84
2022/12/04 04:02:25;;;;;;;31.83;19.80;;;1.40;99.90;;;;;;2617928;54;20380;-85
2022/12/04 04:24:54;;;;;;;24.33;17.53;;;1.40;99.90;;;;;;2618565;31;20854;-84
2022/12/04 04:30:41;;;;;;;28.10;18.43;;;1.40;99.90;;;;;;2617589;54;20957;-85
2022/12/04 04:36:39;;;;;;;26.87;17.40;;;1.50;99.90;;;;;;2618101;39;20476;-84
2022/12/04 04:42:34;;;;;;;28.97;15.90;;;1.50;99.90;;;;;;2617871;54;20400;-85
2022/12/04 04:55:08;;;;;;;28.43;18.57;;;1.50;99.90;;;;;;2617861;54;20391;-84
2022/12/04 05:07:12;;;;;;;29.67;18.03;;;1.50;99.90;;;;;;2618164;46;20431;-85
2022/12/04 05:09:39;;;;;;;28.47;18.73;;;1.50;99.90;;;;;;2618321;47;20404;-86
2022/12/04 05:12:05;;;;;;;27.33;17.03;;;1.50;99.90;;;;;;2618083;54;20156;-85
2022/12/04 05:17:54;;;;;;;29.70;19.80;;;1.50;99.90;;;;;;2618984;54;20126;-85
2022/12/04 05:23:41;;;;;;;25.47;17.07;;;1.50;99.90;;;;;;2618666;54;20376;-86
2022/12/04 05:29:28;;;;;;;30.37;18.93;;;1.50;99.90;;;;;;2619695;54;20126;-87
2022/12/04 05:35:16;;;;;;;26.10;18.23;;;1.50;99.90;;;;;;2620079;54;20138;-85
2022/12/04 05:41:06;;;;;;;30.60;18.00;;;1.50;99.90;;;;;;2620156;54;20340;-83
2022/12/04 05:46:54;;;;;;;29.00;18.63;;;1.50;99.90;;;;;;2620010;54;20391;-86
2022/12/04 05:52:41;;;;;;;27.63;17.23;;;1.40;99.90;;;;;;2620000;54;20134;-85
2022/12/04 05:58:30;;;;;;;25.47;17.10;;;1.50;99.90;;;;;;2620399;54;20138;-87
2022/12/04 06:04:18;;;;;;;25.37;14.80;;;1.50;99.90;;;;;;2619653;54;20375;-86
2022/12/04 06:14:15;;;;;;;26.53;16.90;;;1.50;99.90;;;;;;2619231;54;20367;-86
2022/12/04 06:20:03;;;;;;;29.23;17.80;;;1.50;99.90;;;;;;2618686;54;20496;-85
2022/12/04 06:25:50;;;;;;;28.00;18.80;;;1.50;99.90;;;;;;2617968;54;20374;-84
2022/12/04 06:31:38;;;;;;;26.10;15.87;;;1.50;99.90;;;;;;2618360;54;20370;-83
2022/12/04 06:40:48;;;;;;;25.97;17.37;;;1.50;99.90;;;;;;2617832;54;21419;-85
2022/12/04 06:46:35;;;;;;;25.93;17.43;;;1.60;99.90;;;;;;2618552;54;20171;-86
2022/12/04 06:52:23;;;;;;;26.83;16.50;;;1.50;99.90;;;;;;2618350;54;20448;-84
2022/12/04 06:58:11;;;;;;;25.37;17.63;;;1.50;99.90;;;;;;2619766;54;20122;-85
2022/12/04 07:04:02;;;;;;;20.90;16.63;;;1.50;99.90;;;;;;2619477;54;20142;-86
2022/12/04 07:09:50;;;;;;;21.00;16.43;;;1.60;99.90;;;;;;2619656;54;20391;-85
2022/12/04 07:15:37;;;;;;;24.27;16.97;;;1.50;99.90;;;;;;2620058;54;20154;-84
2022/12/04 07:21:29;;;;;;;19.70;15.40;;;1.60;99.90;;;;;;2627418;54;20150;-82
2022/12/04 07:27:17;;;;;;;22.60;16.57;;;1.60;99.90;;;;;;2624857;46;20401;-79
2022/12/04 07:33:07;;;;;;;23.10;16.60;;;1.60;99.90;;;;;;2618808;54;20130;-79
2022/12/04 07:38:55;;;;;;;23.73;17.40;;;1.60;99.90;;;;;;2625633;54;20407;-78
2022/12/04 07:44:43;;;;;;;28.47;17.47;;;1.70;99.90;;;;;;2618826;54;20390;-78
2022/12/04 07:50:31;;;;;;;23.10;15.63;;;1.70;99.90;;;;;;2618853;54;20231;-79
2022/12/04 07:56:19;;;;;;;22.67;17.33;;;1.70;99.90;;;;;;2619022;54;20122;-80
2022/12/04 08:02:07;;;;;;;25.10;17.97;;;1.70;99.90;;;;;;2619264;39;20766;-80
2022/12/04 08:07:55;;;;;;;26.73;17.23;;;1.70;99.90;;;;;;2618276;54;20400;-80
2022/12/04 08:17:10;;;;;;;21.37;15.90;;;1.80;99.90;;;;;;2615279;54;20393;-72
2022/12/04 08:22:59;;;;;;;25.27;15.87;;;1.90;99.90;;;;;;2615767;54;20133;-72
2022/12/04 08:28:47;;;;;;;21.10;15.50;;;1.80;99.90;;;;;;2617194;54;20535;-72
2022/12/04 08:34:34;;;;;;;23.63;15.20;;;1.80;99.90;;;;;;2615044;54;20551;-74
2022/12/04 08:40:22;;;;;;;21.40;16.30;;;1.90;99.90;;;;;;2617870;54;20150;-73
2022/12/04 08:46:12;;;;;;;23.47;15.97;;;1.90;99.90;;;;;;2618039;46;20173;-73
2022/12/04 08:52:00;;;;;;;31.63;18.77;;;2.10;99.90;;;;;;2617870;54;21040;-74
2022/12/04 08:57:51;;;;;;;25.70;14.77;;;2.00;99.90;;;;;;2617646;54;20150;-72
2022/12/04 09:03:39;;;;;;;22.87;17.90;;;2.00;99.90;;;;;;2617721;39;20661;-72
2022/12/04 09:09:27;;;;;;;29.83;17.60;;;2.00;99.90;;;;;;2618705;54;20990;-73
2022/12/04 09:18:40;;;;;;;26.30;18.83;;;2.00;99.90;;;;;;2618005;38;20675;-73
2022/12/04 09:24:29;;;;;;;21.73;17.00;;;2.00;99.90;;;;;;2616503;54;20398;-73
2022/12/04 09:30:17;;;;;;;23.20;15.90;;;2.10;99.90;;;;;;2614960;54;20468;-73
2022/12/04 09:36:05;;;;;;;21.23;15.27;;;2.00;99.90;;;;;;2614483;54;20155;-74
2022/12/04 09:48:17;;;;;;;23.80;16.90;;;2.10;99.90;;;;;;2615077;54;20403;-74
2022/12/04 09:54:12;;;;;;;26.60;16.30;;;2.20;99.90;;;;;;2614892;54;20829;-73
2022/12/04 10:00:03;;;;;;;31.83;19.37;;;2.20;99.90;;;;;;2614233;54;20399;-75
2022/12/04 10:12:54;;;;;;;22.17;16.60;;;2.30;99.90;;;;;;2613147;54;20945;-75
2022/12/04 10:25:25;;;;;;;30.67;19.77;;;2.30;99.90;;;;;;2611497;39;21056;-72
2022/12/04 10:31:14;;;;;;;29.33;19.80;;;2.40;99.90;;;;;;2613921;54;20374;-78
2022/12/04 10:49:34;;;;;;;25.73;18.30;;;2.30;99.90;;;;;;2612822;54;20399;-74
2022/12/04 10:55:31;;;;;;;21.47;16.77;;;2.30;99.90;;;;;;2612544;54;20944;-73
2022/12/04 11:01:21;;;;;;;28.47;19.60;;;2.40;99.90;;;;;;2612431;54;20391;-77
2022/12/04 11:07:22;;;;;;;27.90;18.23;;;2.50;99.90;;;;;;2612568;54;20975;-71
2022/12/04 11:13:17;;;;;;;26.33;18.40;;;2.50;99.90;;;;;;2611200;54;20973;-73
2022/12/04 11:22:26;;;;;;;26.30;17.47;;;2.60;99.90;;;;;;2612201;54;20385;-74
2022/12/04 11:28:20;;;;;;;28.20;19.57;;;2.60;99.90;;;;;;2614102;54;20401;-73
2022/12/04 11:40:26;;;;;;;26.53;16.70;;;2.70;99.90;;;;;;2613875;39;20820;-73
2022/12/04 11:46:20;;;;;;;29.67;19.47;;;2.60;99.90;;;;;;2613299;54;20396;-72
2022/12/04 11:52:29;;;;;;;27.10;18.27;;;2.60;99.90;;;;;;2613271;54;20386;-73
2022/12/04 11:58:52;;;;;;;29.73;17.50;;;2.70;99.90;;;;;;2611022;39;20903;-74
2022/12/04 12:04:51;;;;;;;26.13;19.00;;;2.80;99.90;;;;;;2612523;54;20386;-74
2022/12/04 12:17:45;;;;;;;22.13;17.57;;;3.00;99.90;;;;;;2614283;39;20770;-73
2022/12/04 12:36:26;;;;;;;23.03;17.37;;;2.90;99.90;;;;;;2614680;54;20387;-73
2022/12/04 12:42:28;;;;;;;27.50;18.37;;;3.00;99.90;;;;;;2611237;54;20407;-74
2022/12/04 12:48:26;;;;;;;25.33;19.63;;;2.90;99.90;;;;;;2613928;54;20398;-78
2022/12/04 13:00:56;;;;;;;22.13;18.30;;;2.90;99.90;;;;;;2610574;54;20423;-77
2022/12/04 13:06:47;;;;;;;21.90;16.90;;;3.00;99.90;;;;;;2613430;54;20431;-73
2022/12/04 13:17:09;;;;;;;24.50;17.17;;;3.00;99.90;;;;;;2611158;54;20394;-73
2022/12/04 13:22:56;;;;;;;22.13;18.07;;;3.00;99.90;;;;;;2610754;54;20450;-74
2022/12/04 13:26:17;;;;;;;22.73;16.40;;;3.10;99.90;;;;;;2610551;54;21250;-74
2022/12/04 13:42:05;;;;;;;20.10;15.63;;;3.00;99.90;;;;;;2608585;46;20407;-76
2022/12/04 13:48:02;;;;;;;20.20;17.00;;;3.00;99.90;;;;;;2610859;54;20414;-73
2022/12/04 14:00:44;;;;;;;20.80;14.67;;;3.10;99.90;;;;;;2612450;54;20399;-73
2022/12/04 14:06:40;;;;;;;21.27;16.00;;;3.10;99.90;;;;;;2612782;54;20166;-73
2022/12/04 14:12:32;;;;;;;19.63;14.67;;;3.10;99.90;;;;;;2611577;54;20387;-72
2022/12/04 14:21:46;;;;;;;19.13;15.87;;;3.10;99.90;;;;;;2613749;54;20434;-72
2022/12/04 14:24:35;;;;;;;17.10;14.97;;;3.10;99.90;;;;;;2614209;54;20423;-73
2022/12/04 14:30:37;;;;;;;19.57;14.67;;;3.10;99.90;;;;;;2612657;54;21106;-75
2022/12/04 14:36:27;;;;;;;19.37;16.00;;;3.20;99.90;;;;;;2614354;54;21379;-73
2022/12/04 14:42:24;;;;;;;24.37;16.47;;;3.20;99.90;;;;;;2613456;39;20741;-73
2022/12/04 15:01:19;;;;;;;20.60;16.67;;;3.20;99.90;;;;;;2611752;54;20383;-72
2022/12/04 15:07:08;;;;;;;17.53;15.50;;;3.20;99.90;;;;;;2611421;54;20395;-73
2022/12/04 15:12:55;;;;;;;25.13;18.50;;;3.20;99.90;;;;;;2610670;54;20395;-73
2022/12/04 15:18:57;;;;;;;21.80;16.50;;;3.10;99.90;;;;;;2610988;54;20133;-73
2022/12/04 15:21:43;;;;;;;25.57;15.70;;;3.10;99.90;;;;;;2611248;54;20415;-73
2022/12/04 15:30:56;;;;;;;24.77;17.20;;;3.10;99.90;;;;;;2607734;54;20394;-74
2022/12/04 15:36:49;;;;;;;22.77;17.53;;;3.10;99.90;;;;;;2609948;54;20960;-72
2022/12/04 15:42:36;;;;;;;29.70;20.30;;;3.20;99.90;;;;;;2609269;54;20508;-72
2022/12/04 15:48:29;;;;;;;21.80;17.43;;;3.10;99.90;;;;;;2608586;54;20133;-72
2022/12/04 15:54:22;;;;;;;26.63;18.70;;;3.20;99.90;;;;;;2609441;54;20497;-76
2022/12/04 16:00:25;;;;;;;24.13;18.27;;;3.10;99.90;;;;;;2608894;39;21445;-73
2022/12/04 16:06:20;;;;;;;26.87;18.80;;;3.10;99.90;;;;;;2610283;54;20379;-75
2022/12/04 16:12:18;;;;;;;32.97;20.97;;;3.10;99.90;;;;;;2609480;54;20378;-72
2022/12/04 16:18:09;;;;;;;30.53;19.80;;;3.10;99.90;;;;;;2611035;39;20847;-73
2022/12/04 16:24:02;;;;;;;36.13;20.17;;;3.10;99.90;;;;;;2610196;46;20507;-73
2022/12/04 16:29:50;;;;;;;31.87;21.07;;;3.00;99.90;;;;;;2610813;54;20403;-73
2022/12/04 16:35:38;;;;;;;33.00;21.93;;;3.00;99.90;;;;;;2610505;54;20411;-72
2022/12/04 16:41:26;;;;;;;28.63;20.07;;;3.00;99.90;;;;;;2613189;54;20259;-74
2022/12/04 16:47:14;;;;;;;33.50;21.63;;;3.10;99.90;;;;;;2613202;54;20275;-72
2022/12/04 16:53:02;;;;;;;27.20;19.80;;;3.00;99.90;;;;;;2611953;46;20438;-72
2022/12/04 16:55:48;;;;;;;26.20;19.87;;;3.10;99.90;;;;;;2612151;54;20977;-73
2022/12/04 16:58:14;;;;;;;30.73;18.37;;;3.10;99.90;;;;;;2611400;47;20255;-73
2022/12/04 17:04:02;;;;;;;30.17;20.83;;;3.10;99.90;;;;;;2612399;54;20402;-73
2022/12/04 17:09:50;;;;;;;28.17;19.67;;;3.10;99.90;;;;;;2612330;39;20548;-74
2022/12/04 17:15:37;;;;;;;29.30;20.83;;;3.20;99.90;;;;;;2611574;54;20225;-73
2022/12/04 17:21:25;;;;;;;37.43;22.23;;;3.20;99.90;;;;;;2611557;54;20130;-73
2022/12/04 17:27:13;;;;;;;37.57;23.70;;;3.00;99.90;;;;;;2611805;46;20225;-74
2022/12/04 17:36:42;;;;;;;40.07;24.83;;;3.00;99.90;;;;;;2610900;54;20512;-71
2022/12/04 17:42:30;;;;;;;34.43;24.03;;;3.00;99.90;;;;;;2611218;54;20130;-76
2022/12/04 17:48:18;;;;;;;37.50;25.23;;;3.00;99.90;;;;;;2611272;54;20537;-71
2022/12/04 17:54:06;;;;;;;45.40;25.50;;;3.00;99.90;;;;;;2611052;46;20300;-72
2022/12/04 17:59:52;;;;;;;37.97;24.87;;;3.00;99.90;;;;;;2611788;54;20379;-74
2022/12/04 18:05:39;;;;;;;35.23;22.17;;;3.00;99.90;;;;;;2613684;54;20138;-74
2022/12/04 18:11:29;;;;;;;39.97;24.90;;;2.90;99.90;;;;;;2610423;54;20263;-75
2022/12/04 18:17:19;;;;;;;40.97;26.87;;;2.90;99.90;;;;;;2612036;54;20378;-73
2022/12/04 18:23:07;;;;;;;42.43;26.87;;;2.90;99.90;;;;;;2611393;39;20875;-74
2022/12/04 18:26:07;;;;;;;43.30;26.87;;;2.90;99.90;;;;;;2609312;54;20422;-75
2022/12/04 18:28:33;;;;;;;39.97;25.17;;;2.90;99.90;;;;;;2609433;39;20825;-73
2022/12/04 18:34:21;;;;;;;42.07;26.93;;;2.80;99.90;;;;;;2612757;54;20138;-73
2022/12/04 18:40:09;;;;;;;45.83;29.70;;;2.80;99.90;;;;;;2613030;54;20395;-73
2022/12/04 18:45:59;;;;;;;54.90;34.23;;;2.70;99.90;;;;;;2611932;54;20391;-72
2022/12/04 18:51:47;;;;;;;49.77;32.67;;;2.70;99.90;;;;;;2612167;54;20979;-73
2022/12/04 18:57:35;;;;;;;56.37;33.90;;;2.70;99.90;;;;;;2611390;54;20394;-75
2022/12/04 19:03:22;;;;;;;54.03;31.80;;;2.70;99.90;;;;;;2612603;54;20147;-74
2022/12/04 19:09:16;;;;;;;46.73;29.33;;;2.70;99.90;;;;;;2611148;54;20223;-74
2022/12/04 19:15:05;;;;;;;50.50;30.00;;;2.60;99.90;;;;;;2612317;54;20439;-73
2022/12/04 19:20:52;;;;;;;48.13;30.20;;;2.60;99.90;;;;;;2612106;54;20386;-73
2022/12/04 19:30:40;;;;;;;55.67;32.90;;;2.60;99.90;;;;;;2612338;54;20401;-74
2022/12/04 19:36:29;;;;;;;54.17;32.90;;;2.60;99.90;;;;;;2612888;54;20382;-74
2022/12/04 19:42:17;;;;;;;52.20;32.53;;;2.60;99.90;;;;;;2612587;54;21331;-74
2022/12/04 19:48:05;;;;;;;56.50;33.77;;;2.60;99.90;;;;;;2612115;54;20204;-73
2022/12/04 19:53:53;;;;;;;54.83;33.70;;;2.50;99.90;;;;;;2610857;54;20154;-74
2022/12/04 19:59:41;;;;;;;52.07;32.20;;;2.60;99.90;;;;;;2611504;54;20374;-75
2022/12/04 20:05:29;;;;;;;55.33;35.17;;;2.60;99.90;;;;;;2611847;54;20407;-74
2022/12/04 20:11:19;;;;;;;52.93;32.40;;;2.60;99.90;;;;;;2612547;54;20169;-73
2022/12/04 20:17:07;;;;;;;53.77;29.00;;;2.60;99.90;;;;;;2614327;54;20448;-74
2022/12/04 20:22:55;;;;;;;50.67;32.03;;;2.60;99.90;;;;;;2614542;39;20764;-74
2022/12/04 20:28:54;;;;;;;46.20;29.80;;;2.60;99.90;;;;;;2612037;54;20376;-73
2022/12/04 20:34:41;;;;;;;50.37;28.23;;;2.60;99.90;;;;;;2612270;54;20508;-74
2022/12/04 20:40:28;;;;;;;46.30;27.60;;;2.70;99.90;;;;;;2612506;39;20728;-74
2022/12/04 20:49:39;;;;;;;43.87;27.73;;;2.70;99.90;;;;;;2610800;54;21034;-76
2022/12/04 20:55:26;;;;;;;49.70;30.27;;;2.70;99.90;;;;;;2611211;54;20386;-73
2022/12/04 21:01:16;;;;;;;43.07;27.93;;;2.60;99.90;;;;;;2611550;54;20122;-74
2022/12/04 21:07:03;;;;;;;41.00;26.07;;;2.60;99.90;;;;;;2613064;54;20403;-73
2022/12/04 21:18:57;;;;;;;38.60;26.87;;;2.60;99.90;;;;;;2613507;39;20555;-73
2022/12/04 21:24:45;;;;;;;43.77;25.63;;;2.60;99.90;;;;;;2613862;54;20154;-73
2022/12/04 21:30:33;;;;;;;44.20;27.30;;;2.60;99.90;;;;;;2613517;31;20620;-76
2022/12/04 21:36:22;;;;;;;46.87;26.27;;;2.60;99.90;;;;;;2612925;54;20447;-73
2022/12/04 21:48:19;;;;;;;48.27;30.50;;;2.60;99.90;;;;;;2614074;54;20792;-74
2022/12/04 21:54:07;;;;;;;44.80;29.53;;;2.60;99.90;;;;;;2614353;54;20203;-73
2022/12/04 21:59:55;;;;;;;48.60;28.23;;;2.60;99.90;;;;;;2613341;54;20402;-73
2022/12/04 22:05:43;;;;;;;47.87;30.33;;;2.60;99.90;;;;;;2613473;54;20127;-73
2022/12/04 22:11:31;;;;;;;49.57;30.73;;;2.60;99.90;;;;;;2613619;54;20717;-73
2022/12/04 22:17:18;;;;;;;66.47;29.03;;;2.70;99.90;;;;;;2614651;54;20171;-75
2022/12/04 22:23:07;;;;;;;50.10;31.33;;;2.70;99.90;;;;;;2613964;46;20165;-73
2022/12/04 22:26:13;;;;;;;49.17;29.53;;;2.80;99.90;;;;;;2613712;54;20379;-73
2022/12/04 22:28:39;;;;;;;48.93;28.20;;;2.70;99.90;;;;;;2614352;54;20863;-73
2022/12/04 22:34:27;;;;;;;50.43;30.73;;;2.80;99.90;;;;;;2614574;54;20396;-72
2022/12/04 22:40:15;;;;;;;42.27;27.43;;;2.70;99.90;;;;;;2613271;54;20150;-73
2022/12/04 22:46:03;;;;;;;42.97;27.70;;;2.80;99.90;;;;;;2614137;54;20387;-73
2022/12/04 22:51:52;;;;;;;44.17;26.93;;;2.70;99.90;;;;;;2613048;54;20395;-74
2022/12/04 22:57:40;;;;;;;44.17;28.83;;;2.80;99.90;;;;;;2615227;54;20384;-73
2022/12/04 23:03:27;;;;;;;48.00;28.57;;;2.80;99.90;;;;;;2614850;39;20574;-72
2022/12/04 23:09:16;;;;;;;45.33;28.50;;;2.80;99.90;;;;;;2612819;54;20219;-72
2022/12/04 23:15:04;;;;;;;46.83;28.63;;;2.80;99.90;;;;;;2614175;54;20378;-75
2022/12/04 23:20:53;;;;;;;43.30;28.17;;;2.80;99.90;;;;;;2613042;54;20391;-73
2022/12/04 23:30:43;;;;;;;42.50;28.30;;;2.80;99.90;;;;;;2613235;39;20788;-73
2022/12/04 23:36:32;;;;;;;41.03;25.70;;;2.90;99.90;;;;;;2614563;54;20403;-73
2022/12/04 23:39:35;;;;;;;44.27;28.37;;;2.90;99.90;;;;;;2613080;54;20471;-73
2022/12/04 23:42:00;;;;;;;46.93;26.77;;;2.90;99.90;;;;;;2614088;54;20518;-73
2022/12/04 23:47:48;;;;;;;36.30;24.80;;;2.90;99.90;;;;;;2613976;54;20170;-73
2022/12/04 23:53:36;;;;;;;42.20;26.47;;;2.90;99.90;;;;;;2613616;54;20965;-72
2022/12/04 23:59:23;;;;;;;49.83;29.70;;;2.80;99.90;;;;;;2613973;54;20155;-73
